チタ の空港の天気 - METARとTAF

チタ・カダラ空港 ( UIAA / HTA ) - ロシア チタ
飛行場実況気象(Metar)
観測時間01/21 02:00 +09 (01/20 17:00 UTC)
風向・風速西 2m/s
視程10km以上
天気現象
なし
気温-26℃
湿度76%
気圧1023hPa
METARUIAA 201700Z 26002MPS 9999 NSC M26/M29 Q1023 R29/490240 NOSIG RMK QFE709
過去の天気等 Google飛行場航空写真 Wunderground天気予報

過去48時間のMETAR

飛行場予報(TAF)
発表時間: 1/21 02:00 +09 (1/20 17:00 UTC)
予報対象時間: 21日3時 +09 ~ 22日3時 +09
風向・風速北西 3m/s
視程5,000m
天気現象もや
全天の8割程度の雲 雲底高度 3,050m
21日3時 +09 ~ 21日9時 +09 に一時的に
視程2,100m
天気現象もや
全天の4割程度の雲 雲底高度 60m
TAF UIAA 201700Z 2018/2118 32003MPS 5000 BR BKN100
TEMPO 2018/2024 2100 BR SCT002